sensor_id;sensor_type;location;lat;lon;timestamp;temperature;humidity
3055;DHT22;1537;52.018;8.542;2022-07-10T00:03:15;16.20;99.90
3055;DHT22;1537;52.018;8.542;2022-07-10T00:06:38;16.20;99.90
3055;DHT22;1537;52.018;8.542;2022-07-10T00:10:05;16.10;99.90
3055;DHT22;1537;52.018;8.542;2022-07-10T00:13:31;16.30;99.90
3055;DHT22;1537;52.018;8.542;2022-07-10T00:16:55;16.20;99.90
3055;DHT22;1537;52.018;8.542;2022-07-10T00:20:20;16.30;99.90
3055;DHT22;1537;52.018;8.542;2022-07-10T00:23:45;16.30;99.90
3055;DHT22;1537;52.018;8.542;2022-07-10T00:27:09;16.30;99.90
3055;DHT22;1537;52.018;8.542;2022-07-10T00:30:34;16.30;99.90
3055;DHT22;1537;52.018;8.542;2022-07-10T00:33:58;16.30;99.90
3055;DHT22;1537;52.018;8.542;2022-07-10T00:37:23;16.20;99.90
3055;DHT22;1537;52.018;8.542;2022-07-10T00:40:48;16.10;99.90
3055;DHT22;1537;52.018;8.542;2022-07-10T00:44:12;16.10;99.90
3055;DHT22;1537;52.018;8.542;2022-07-10T00:47:36;16.00;99.90
3055;DHT22;1537;52.018;8.542;2022-07-10T00:51:01;16.00;99.90
3055;DHT22;1537;52.018;8.542;2022-07-10T00:54:27;15.90;99.90
3055;DHT22;1537;52.018;8.542;2022-07-10T00:57:51;16.00;99.90
3055;DHT22;1537;52.018;8.542;2022-07-10T01:01:17;15.90;99.90
3055;DHT22;1537;52.018;8.542;2022-07-10T01:04:41;15.90;99.90
3055;DHT22;1537;52.018;8.542;2022-07-10T01:08:06;15.80;99.90
3055;DHT22;1537;52.018;8.542;2022-07-10T01:11:33;15.70;99.90
3055;DHT22;1537;52.018;8.542;2022-07-10T01:15:00;15.80;99.90
3055;DHT22;1537;52.018;8.542;2022-07-10T01:18:25;15.70;99.90
3055;DHT22;1537;52.018;8.542;2022-07-10T01:21:50;15.70;99.90
3055;DHT22;1537;52.018;8.542;2022-07-10T01:25:15;15.70;99.90
3055;DHT22;1537;52.018;8.542;2022-07-10T01:28:41;15.70;99.90
3055;DHT22;1537;52.018;8.542;2022-07-10T01:32:06;15.70;99.90
3055;DHT22;1537;52.018;8.542;2022-07-10T01:35:30;15.50;99.90
3055;DHT22;1537;52.018;8.542;2022-07-10T01:38:59;15.50;99.90
3055;DHT22;1537;52.018;8.542;2022-07-10T01:42:23;15.30;99.90
3055;DHT22;1537;52.018;8.542;2022-07-10T01:45:47;15.40;99.90
3055;DHT22;1537;52.018;8.542;2022-07-10T01:49:12;15.40;99.90
3055;DHT22;1537;52.018;8.542;2022-07-10T01:52:36;15.50;99.90
3055;DHT22;1537;52.018;8.542;2022-07-10T01:56:04;15.50;99.90
3055;DHT22;1537;52.018;8.542;2022-07-10T01:59:28;15.40;99.90
3055;DHT22;1537;52.018;8.542;2022-07-10T02:02:52;15.40;99.90
3055;DHT22;1537;52.018;8.542;2022-07-10T02:06:30;15.40;99.90
3055;DHT22;1537;52.018;8.542;2022-07-10T02:09:54;15.40;99.90
3055;DHT22;1537;52.018;8.542;2022-07-10T02:13:19;15.50;99.90
3055;DHT22;1537;52.018;8.542;2022-07-10T02:16:46;15.50;99.90
3055;DHT22;1537;52.018;8.542;2022-07-10T02:20:10;15.50;99.90
3055;DHT22;1537;52.018;8.542;2022-07-10T02:23:35;15.40;99.90
3055;DHT22;1537;52.018;8.542;2022-07-10T02:27:01;15.40;99.90
3055;DHT22;1537;52.018;8.542;2022-07-10T02:30:27;15.40;99.90
3055;DHT22;1537;52.018;8.542;2022-07-10T02:33:51;15.40;99.90
3055;DHT22;1537;52.018;8.542;2022-07-10T02:37:15;15.40;99.90
3055;DHT22;1537;52.018;8.542;2022-07-10T02:40:39;15.40;99.90
3055;DHT22;1537;52.018;8.542;2022-07-10T02:44:05;15.50;99.90
3055;DHT22;1537;52.018;8.542;2022-07-10T02:47:30;15.50;99.90
3055;DHT22;1537;52.018;8.542;2022-07-10T02:50:54;15.50;99.90
3055;DHT22;1537;52.018;8.542;2022-07-10T02:54:18;15.50;99.90
3055;DHT22;1537;52.018;8.542;2022-07-10T02:57:42;15.30;99.90
3055;DHT22;1537;52.018;8.542;2022-07-10T03:01:06;15.40;99.90
3055;DHT22;1537;52.018;8.542;2022-07-10T03:04:33;15.30;99.90
3055;DHT22;1537;52.018;8.542;2022-07-10T03:07:59;15.40;99.90
3055;DHT22;1537;52.018;8.542;2022-07-10T03:11:23;15.40;99.90
3055;DHT22;1537;52.018;8.542;2022-07-10T03:14:47;15.30;99.90
3055;DHT22;1537;52.018;8.542;2022-07-10T03:18:11;15.30;99.90
3055;DHT22;1537;52.018;8.542;2022-07-10T03:21:36;15.30;99.90
3055;DHT22;1537;52.018;8.542;2022-07-10T03:25:00;15.30;99.90
3055;DHT22;1537;52.018;8.542;2022-07-10T03:28:24;15.30;99.90
3055;DHT22;1537;52.018;8.542;2022-07-10T03:31:48;15.20;99.90
3055;DHT22;1537;52.018;8.542;2022-07-10T03:35:12;15.20;99.90
3055;DHT22;1537;52.018;8.542;2022-07-10T03:38:37;15.20;99.90
3055;DHT22;1537;52.018;8.542;2022-07-10T03:42:03;15.30;99.90
3055;DHT22;1537;52.018;8.542;2022-07-10T03:45:27;15.30;99.90
3055;DHT22;1537;52.018;8.542;2022-07-10T03:48:54;15.30;99.90
3055;DHT22;1537;52.018;8.542;2022-07-10T03:52:18;15.20;99.90
3055;DHT22;1537;52.018;8.542;2022-07-10T03:55:44;15.30;99.90
3055;DHT22;1537;52.018;8.542;2022-07-10T03:59:09;15.20;99.90
3055;DHT22;1537;52.018;8.542;2022-07-10T04:02:32;15.20;99.90
3055;DHT22;1537;52.018;8.542;2022-07-10T04:05:56;15.30;99.90
3055;DHT22;1537;52.018;8.542;2022-07-10T04:09:20;15.30;99.90
3055;DHT22;1537;52.018;8.542;2022-07-10T04:12:48;15.20;99.90
3055;DHT22;1537;52.018;8.542;2022-07-10T04:16:12;15.20;99.90
3055;DHT22;1537;52.018;8.542;2022-07-10T04:19:36;15.20;99.90
3055;DHT22;1537;52.018;8.542;2022-07-10T04:23:00;15.30;99.90
3055;DHT22;1537;52.018;8.542;2022-07-10T04:26:25;15.30;99.90
3055;DHT22;1537;52.018;8.542;2022-07-10T04:29:51;15.20;99.90
3055;DHT22;1537;52.018;8.542;2022-07-10T04:33:15;15.30;99.90
3055;DHT22;1537;52.018;8.542;2022-07-10T04:36:39;15.30;99.90
3055;DHT22;1537;52.018;8.542;2022-07-10T04:40:04;15.50;99.90
3055;DHT22;1537;52.018;8.542;2022-07-10T04:43:30;15.50;99.90
3055;DHT22;1537;52.018;8.542;2022-07-10T04:46:56;15.50;99.90
3055;DHT22;1537;52.018;8.542;2022-07-10T04:50:20;15.50;99.90
3055;DHT22;1537;52.018;8.542;2022-07-10T04:53:44;15.40;99.90
3055;DHT22;1537;52.018;8.542;2022-07-10T04:57:08;15.40;99.90
3055;DHT22;1537;52.018;8.542;2022-07-10T05:00:32;15.40;99.90
3055;DHT22;1537;52.018;8.542;2022-07-10T05:03:58;15.40;99.90
3055;DHT22;1537;52.018;8.542;2022-07-10T05:07:22;15.40;99.90
3055;DHT22;1537;52.018;8.542;2022-07-10T05:10:46;15.40;99.90
3055;DHT22;1537;52.018;8.542;2022-07-10T05:14:10;15.50;99.90
3055;DHT22;1537;52.018;8.542;2022-07-10T05:17:34;15.50;99.90
3055;DHT22;1537;52.018;8.542;2022-07-10T05:20:59;15.60;99.90
3055;DHT22;1537;52.018;8.542;2022-07-10T05:24:24;15.60;99.90
3055;DHT22;1537;52.018;8.542;2022-07-10T05:27:48;15.60;99.90
3055;DHT22;1537;52.018;8.542;2022-07-10T05:31:12;15.40;99.90
3055;DHT22;1537;52.018;8.542;2022-07-10T05:34:36;15.60;99.90
3055;DHT22;1537;52.018;8.542;2022-07-10T05:38:04;15.60;99.90
3055;DHT22;1537;52.018;8.542;2022-07-10T05:41:28;15.60;99.90
3055;DHT22;1537;52.018;8.542;2022-07-10T05:44:55;15.70;99.90
3055;DHT22;1537;52.018;8.542;2022-07-10T05:48:19;15.70;99.90
3055;DHT22;1537;52.018;8.542;2022-07-10T05:51:43;15.80;99.90
3055;DHT22;1537;52.018;8.542;2022-07-10T05:55:09;15.80;99.90
3055;DHT22;1537;52.018;8.542;2022-07-10T05:58:33;15.90;99.90
3055;DHT22;1537;52.018;8.542;2022-07-10T06:01:58;16.00;99.90
3055;DHT22;1537;52.018;8.542;2022-07-10T06:05:25;16.10;99.90
3055;DHT22;1537;52.018;8.542;2022-07-10T06:08:49;16.10;99.90
3055;DHT22;1537;52.018;8.542;2022-07-10T06:12:15;16.10;99.90
3055;DHT22;1537;52.018;8.542;2022-07-10T06:15:39;16.30;99.90
3055;DHT22;1537;52.018;8.542;2022-07-10T06:19:03;16.30;99.90
3055;DHT22;1537;52.018;8.542;2022-07-10T06:22:27;16.40;99.90
3055;DHT22;1537;52.018;8.542;2022-07-10T06:25:56;16.40;99.90
3055;DHT22;1537;52.018;8.542;2022-07-10T06:29:24;16.40;99.90
3055;DHT22;1537;52.018;8.542;2022-07-10T06:32:48;16.50;99.90
3055;DHT22;1537;52.018;8.542;2022-07-10T06:36:12;16.60;99.90
3055;DHT22;1537;52.018;8.542;2022-07-10T06:39:47;16.50;99.90
3055;DHT22;1537;52.018;8.542;2022-07-10T06:43:11;16.50;99.90
3055;DHT22;1537;52.018;8.542;2022-07-10T06:46:38;16.70;99.90
3055;DHT22;1537;52.018;8.542;2022-07-10T06:50:03;17.10;99.90
3055;DHT22;1537;52.018;8.542;2022-07-10T06:53:27;17.60;99.90
3055;DHT22;1537;52.018;8.542;2022-07-10T06:56:51;18.20;99.90
3055;DHT22;1537;52.018;8.542;2022-07-10T07:00:15;18.50;99.90
3055;DHT22;1537;52.018;8.542;2022-07-10T07:03:43;18.80;99.90
3055;DHT22;1537;52.018;8.542;2022-07-10T07:07:07;18.60;99.90
3055;DHT22;1537;52.018;8.542;2022-07-10T07:10:33;18.60;99.90
3055;DHT22;1537;52.018;8.542;2022-07-10T07:13:58;18.50;99.90
3055;DHT22;1537;52.018;8.542;2022-07-10T07:17:21;18.70;99.90
3055;DHT22;1537;52.018;8.542;2022-07-10T07:20:49;18.80;99.90
3055;DHT22;1537;52.018;8.542;2022-07-10T07:24:32;18.80;99.90
3055;DHT22;1537;52.018;8.542;2022-07-10T07:27:56;18.80;99.90
3055;DHT22;1537;52.018;8.542;2022-07-10T07:31:21;18.70;99.90
3055;DHT22;1537;52.018;8.542;2022-07-10T07:34:45;18.60;99.90
3055;DHT22;1537;52.018;8.542;2022-07-10T07:38:11;18.70;99.90
3055;DHT22;1537;52.018;8.542;2022-07-10T07:41:35;18.90;99.90
3055;DHT22;1537;52.018;8.542;2022-07-10T07:45:00;19.40;99.90
3055;DHT22;1537;52.018;8.542;2022-07-10T07:48:27;19.70;99.90
3055;DHT22;1537;52.018;8.542;2022-07-10T07:51:50;19.90;99.90
3055;DHT22;1537;52.018;8.542;2022-07-10T07:55:19;19.50;99.90
3055;DHT22;1537;52.018;8.542;2022-07-10T07:58:53;19.00;99.90
3055;DHT22;1537;52.018;8.542;2022-07-10T08:02:17;18.50;99.90
3055;DHT22;1537;52.018;8.542;2022-07-10T08:05:44;19.90;99.90
3055;DHT22;1537;52.018;8.542;2022-07-10T08:09:09;20.40;99.90
3055;DHT22;1537;52.018;8.542;2022-07-10T08:12:37;19.80;99.90
3055;DHT22;1537;52.018;8.542;2022-07-10T08:16:05;20.70;99.90
3055;DHT22;1537;52.018;8.542;2022-07-10T08:19:31;21.60;99.90
3055;DHT22;1537;52.018;8.542;2022-07-10T08:22:55;23.70;99.90
3055;DHT22;1537;52.018;8.542;2022-07-10T08:26:24;27.30;92.60
3055;DHT22;1537;52.018;8.542;2022-07-10T08:29:52;28.40;74.60
3055;DHT22;1537;52.018;8.542;2022-07-10T08:33:25;30.10;59.60
3055;DHT22;1537;52.018;8.542;2022-07-10T08:36:51;31.60;49.20
3055;DHT22;1537;52.018;8.542;2022-07-10T08:40:16;32.10;45.70
3055;DHT22;1537;52.018;8.542;2022-07-10T08:43:42;29.40;45.00
3055;DHT22;1537;52.018;8.542;2022-07-10T08:47:10;28.00;49.20
3055;DHT22;1537;52.018;8.542;2022-07-10T08:50:38;26.50;51.80
3055;DHT22;1537;52.018;8.542;2022-07-10T08:54:14;27.10;52.20
3055;DHT22;1537;52.018;8.542;2022-07-10T08:57:45;26.70;50.50
3055;DHT22;1537;52.018;8.542;2022-07-10T09:01:12;25.40;53.50
3055;DHT22;1537;52.018;8.542;2022-07-10T09:04:50;24.60;55.60
3055;DHT22;1537;52.018;8.542;2022-07-10T09:08:26;23.50;58.60
3055;DHT22;1537;52.018;8.542;2022-07-10T09:11:55;22.10;64.10
3055;DHT22;1537;52.018;8.542;2022-07-10T09:15:22;22.10;67.20
3055;DHT22;1537;52.018;8.542;2022-07-10T09:18:50;22.70;65.50
3055;DHT22;1537;52.018;8.542;2022-07-10T09:22:16;22.70;65.10
3055;DHT22;1537;52.018;8.542;2022-07-10T09:25:41;23.30;65.20
3055;DHT22;1537;52.018;8.542;2022-07-10T09:29:06;24.30;63.70
3055;DHT22;1537;52.018;8.542;2022-07-10T09:32:32;24.60;61.70
3055;DHT22;1537;52.018;8.542;2022-07-10T09:35:57;24.80;61.50
3055;DHT22;1537;52.018;8.542;2022-07-10T09:39:32;24.30;61.30
3055;DHT22;1537;52.018;8.542;2022-07-10T09:42:56;22.90;64.60
3055;DHT22;1537;52.018;8.542;2022-07-10T09:46:23;22.20;69.00
3055;DHT22;1537;52.018;8.542;2022-07-10T09:49:46;21.60;72.40
3055;DHT22;1537;52.018;8.542;2022-07-10T09:53:10;21.10;76.70
3055;DHT22;1537;52.018;8.542;2022-07-10T09:56:42;21.10;79.50
3055;DHT22;1537;52.018;8.542;2022-07-10T10:00:08;20.90;82.10
3055;DHT22;1537;52.018;8.542;2022-07-10T10:03:34;20.80;84.00
3055;DHT22;1537;52.018;8.542;2022-07-10T10:06:59;20.60;89.10
3055;DHT22;1537;52.018;8.542;2022-07-10T10:10:24;20.50;91.20
3055;DHT22;1537;52.018;8.542;2022-07-10T10:13:50;20.70;92.90
3055;DHT22;1537;52.018;8.542;2022-07-10T10:17:16;21.00;92.50
3055;DHT22;1537;52.018;8.542;2022-07-10T10:20:41;21.00;92.70
3055;DHT22;1537;52.018;8.542;2022-07-10T10:24:06;20.90;93.90
3055;DHT22;1537;52.018;8.542;2022-07-10T10:27:30;20.80;94.00
3055;DHT22;1537;52.018;8.542;2022-07-10T10:30:59;20.90;95.20
3055;DHT22;1537;52.018;8.542;2022-07-10T10:34:40;21.40;94.80
3055;DHT22;1537;52.018;8.542;2022-07-10T10:38:05;21.00;96.00
3055;DHT22;1537;52.018;8.542;2022-07-10T10:41:29;20.90;97.90
3055;DHT22;1537;52.018;8.542;2022-07-10T10:45:22;20.60;99.90
3055;DHT22;1537;52.018;8.542;2022-07-10T10:49:04;20.20;99.90
3055;DHT22;1537;52.018;8.542;2022-07-10T10:52:29;20.00;99.90
3055;DHT22;1537;52.018;8.542;2022-07-10T10:56:21;19.90;99.90
3055;DHT22;1537;52.018;8.542;2022-07-10T10:59:46;20.10;99.90
3055;DHT22;1537;52.018;8.542;2022-07-10T11:03:22;20.20;99.90
3055;DHT22;1537;52.018;8.542;2022-07-10T11:06:49;19.70;99.90
3055;DHT22;1537;52.018;8.542;2022-07-10T11:10:27;19.40;99.90
3055;DHT22;1537;52.018;8.542;2022-07-10T11:13:56;19.50;99.90
3055;DHT22;1537;52.018;8.542;2022-07-10T11:17:27;19.80;99.90
3055;DHT22;1537;52.018;8.542;2022-07-10T11:20:52;20.30;99.90
3055;DHT22;1537;52.018;8.542;2022-07-10T11:28:11;21.10;99.90
3055;DHT22;1537;52.018;8.542;2022-07-10T11:31:36;21.30;99.90
3055;DHT22;1537;52.018;8.542;2022-07-10T11:35:11;20.30;99.90
3055;DHT22;1537;52.018;8.542;2022-07-10T11:38:35;19.00;99.90
3055;DHT22;1537;52.018;8.542;2022-07-10T11:42:00;18.60;99.90
3055;DHT22;1537;52.018;8.542;2022-07-10T11:45:26;18.40;99.90
3055;DHT22;1537;52.018;8.542;2022-07-10T11:48:52;18.40;99.90
3055;DHT22;1537;52.018;8.542;2022-07-10T11:52:17;18.70;99.90
3055;DHT22;1537;52.018;8.542;2022-07-10T11:55:41;18.50;99.90
3055;DHT22;1537;52.018;8.542;2022-07-10T11:59:08;18.80;99.90
3055;DHT22;1537;52.018;8.542;2022-07-10T12:02:33;18.90;99.90
3055;DHT22;1537;52.018;8.542;2022-07-10T12:06:02;19.30;99.90
3055;DHT22;1537;52.018;8.542;2022-07-10T12:09:26;19.90;99.90
3055;DHT22;1537;52.018;8.542;2022-07-10T12:12:50;20.30;99.90
3055;DHT22;1537;52.018;8.542;2022-07-10T12:16:16;20.20;99.90
3055;DHT22;1537;52.018;8.542;2022-07-10T12:19:40;20.10;99.90
3055;DHT22;1537;52.018;8.542;2022-07-10T12:23:04;20.20;99.90
3055;DHT22;1537;52.018;8.542;2022-07-10T12:26:32;20.00;99.90
3055;DHT22;1537;52.018;8.542;2022-07-10T12:30:00;19.90;99.90
3055;DHT22;1537;52.018;8.542;2022-07-10T12:33:25;19.50;99.90
3055;DHT22;1537;52.018;8.542;2022-07-10T12:36:58;19.20;99.90
3055;DHT22;1537;52.018;8.542;2022-07-10T12:40:30;18.80;99.90
3055;DHT22;1537;52.018;8.542;2022-07-10T12:43:54;18.80;99.90
3055;DHT22;1537;52.018;8.542;2022-07-10T12:47:19;19.20;99.90
3055;DHT22;1537;52.018;8.542;2022-07-10T12:50:47;19.60;99.90
3055;DHT22;1537;52.018;8.542;2022-07-10T12:54:36;20.30;99.90
3055;DHT22;1537;52.018;8.542;2022-07-10T12:58:08;21.10;99.90
3055;DHT22;1537;52.018;8.542;2022-07-10T13:01:40;21.50;99.90
3055;DHT22;1537;52.018;8.542;2022-07-10T13:05:05;21.80;99.90
3055;DHT22;1537;52.018;8.542;2022-07-10T13:08:44;22.40;99.90
3055;DHT22;1537;52.018;8.542;2022-07-10T13:12:11;22.60;99.90
3055;DHT22;1537;52.018;8.542;2022-07-10T13:15:35;23.00;99.90
3055;DHT22;1537;52.018;8.542;2022-07-10T13:19:03;23.30;99.90
3055;DHT22;1537;52.018;8.542;2022-07-10T13:22:27;23.50;99.90
3055;DHT22;1537;52.018;8.542;2022-07-10T13:25:52;23.70;99.90
3055;DHT22;1537;52.018;8.542;2022-07-10T13:29:16;24.00;99.90
3055;DHT22;1537;52.018;8.542;2022-07-10T13:32:40;24.10;99.90
3055;DHT22;1537;52.018;8.542;2022-07-10T13:36:04;23.90;99.90
3055;DHT22;1537;52.018;8.542;2022-07-10T13:39:28;23.80;99.90
3055;DHT22;1537;52.018;8.542;2022-07-10T13:42:53;23.30;99.90
3055;DHT22;1537;52.018;8.542;2022-07-10T13:46:22;23.10;99.90
3055;DHT22;1537;52.018;8.542;2022-07-10T13:49:48;22.80;99.90
3055;DHT22;1537;52.018;8.542;2022-07-10T13:53:12;22.70;99.90
3055;DHT22;1537;52.018;8.542;2022-07-10T13:56:38;22.70;99.90
3055;DHT22;1537;52.018;8.542;2022-07-10T14:00:06;22.80;99.90
3055;DHT22;1537;52.018;8.542;2022-07-10T14:03:33;23.00;99.90
3055;DHT22;1537;52.018;8.542;2022-07-10T14:06:57;22.80;99.90
3055;DHT22;1537;52.018;8.542;2022-07-10T14:10:21;23.00;99.90
3055;DHT22;1537;52.018;8.542;2022-07-10T14:13:45;23.00;99.90
3055;DHT22;1537;52.018;8.542;2022-07-10T14:17:10;22.90;99.90
3055;DHT22;1537;52.018;8.542;2022-07-10T14:20:35;22.70;99.90
3055;DHT22;1537;52.018;8.542;2022-07-10T14:24:13;22.40;99.90
3055;DHT22;1537;52.018;8.542;2022-07-10T14:27:37;21.80;99.90
3055;DHT22;1537;52.018;8.542;2022-07-10T14:31:00;21.70;99.90
3055;DHT22;1537;52.018;8.542;2022-07-10T14:34:27;21.70;99.90
3055;DHT22;1537;52.018;8.542;2022-07-10T14:37:51;21.60;99.90
3055;DHT22;1537;52.018;8.542;2022-07-10T14:41:15;21.70;99.90
3055;DHT22;1537;52.018;8.542;2022-07-10T14:44:39;21.70;99.90
3055;DHT22;1537;52.018;8.542;2022-07-10T14:48:03;21.50;99.90
3055;DHT22;1537;52.018;8.542;2022-07-10T14:51:28;21.30;99.90
3055;DHT22;1537;52.018;8.542;2022-07-10T14:54:52;21.10;99.90
3055;DHT22;1537;52.018;8.542;2022-07-10T14:58:16;20.60;99.90
3055;DHT22;1537;52.018;8.542;2022-07-10T15:01:40;20.40;99.90
3055;DHT22;1537;52.018;8.542;2022-07-10T15:05:04;20.10;99.90
3055;DHT22;1537;52.018;8.542;2022-07-10T15:08:29;20.20;99.90
3055;DHT22;1537;52.018;8.542;2022-07-10T15:11:53;20.50;99.90
3055;DHT22;1537;52.018;8.542;2022-07-10T15:15:17;20.80;99.90
3055;DHT22;1537;52.018;8.542;2022-07-10T15:18:41;21.00;99.90
3055;DHT22;1537;52.018;8.542;2022-07-10T15:22:05;21.30;99.90
3055;DHT22;1537;52.018;8.542;2022-07-10T15:25:31;21.40;99.90
3055;DHT22;1537;52.018;8.542;2022-07-10T15:28:55;21.60;99.90
3055;DHT22;1537;52.018;8.542;2022-07-10T15:32:20;21.60;99.90
3055;DHT22;1537;52.018;8.542;2022-07-10T15:35:45;21.60;99.90
3055;DHT22;1537;52.018;8.542;2022-07-10T15:39:08;21.50;99.90
3055;DHT22;1537;52.018;8.542;2022-07-10T15:42:33;21.30;99.90
3055;DHT22;1537;52.018;8.542;2022-07-10T15:45:57;21.00;99.90
3055;DHT22;1537;52.018;8.542;2022-07-10T15:49:21;20.90;99.90
3055;DHT22;1537;52.018;8.542;2022-07-10T15:52:45;20.80;99.90
3055;DHT22;1537;52.018;8.542;2022-07-10T15:56:09;21.10;99.90
3055;DHT22;1537;52.018;8.542;2022-07-10T15:59:34;21.00;99.90
3055;DHT22;1537;52.018;8.542;2022-07-10T16:02:58;21.00;99.90
3055;DHT22;1537;52.018;8.542;2022-07-10T16:06:21;20.80;99.90
3055;DHT22;1537;52.018;8.542;2022-07-10T16:09:45;20.80;99.90
3055;DHT22;1537;52.018;8.542;2022-07-10T16:13:11;20.60;99.90
3055;DHT22;1537;52.018;8.542;2022-07-10T16:16:37;20.50;99.90
3055;DHT22;1537;52.018;8.542;2022-07-10T16:20:01;20.30;99.90
3055;DHT22;1537;52.018;8.542;2022-07-10T16:23:25;20.00;99.90
3055;DHT22;1537;52.018;8.542;2022-07-10T16:26:49;19.70;99.90
3055;DHT22;1537;52.018;8.542;2022-07-10T16:30:12;19.50;99.90
3055;DHT22;1537;52.018;8.542;2022-07-10T16:33:38;19.20;99.90
3055;DHT22;1537;52.018;8.542;2022-07-10T16:37:03;19.30;99.90
3055;DHT22;1537;52.018;8.542;2022-07-10T16:40:27;19.20;99.90
3055;DHT22;1537;52.018;8.542;2022-07-10T16:43:50;19.00;99.90
3055;DHT22;1537;52.018;8.542;2022-07-10T16:47:14;18.90;99.90
3055;DHT22;1537;52.018;8.542;2022-07-10T16:50:39;18.90;99.90
3055;DHT22;1537;52.018;8.542;2022-07-10T16:54:03;18.70;99.90
3055;DHT22;1537;52.018;8.542;2022-07-10T16:57:39;18.80;99.90
3055;DHT22;1537;52.018;8.542;2022-07-10T17:01:02;18.70;99.90
3055;DHT22;1537;52.018;8.542;2022-07-10T17:04:26;18.70;99.90
3055;DHT22;1537;52.018;8.542;2022-07-10T17:08:01;18.70;99.90
3055;DHT22;1537;52.018;8.542;2022-07-10T17:11:25;18.60;99.90
3055;DHT22;1537;52.018;8.542;2022-07-10T17:14:54;18.60;99.90
3055;DHT22;1537;52.018;8.542;2022-07-10T17:18:18;18.60;99.90
3055;DHT22;1537;52.018;8.542;2022-07-10T17:21:42;18.60;99.90
3055;DHT22;1537;52.018;8.542;2022-07-10T17:25:21;18.40;99.90
3055;DHT22;1537;52.018;8.542;2022-07-10T17:28:45;18.40;99.90
3055;DHT22;1537;52.018;8.542;2022-07-10T17:36:31;18.40;99.90
3055;DHT22;1537;52.018;8.542;2022-07-10T17:39:54;18.20;99.90
3055;DHT22;1537;52.018;8.542;2022-07-10T17:43:19;18.10;99.90
3055;DHT22;1537;52.018;8.542;2022-07-10T17:46:43;18.20;99.90
3055;DHT22;1537;52.018;8.542;2022-07-10T17:50:07;18.10;99.90
3055;DHT22;1537;52.018;8.542;2022-07-10T17:53:31;18.10;99.90
3055;DHT22;1537;52.018;8.542;2022-07-10T17:56:54;17.90;99.90
3055;DHT22;1537;52.018;8.542;2022-07-10T18:00:20;17.80;99.90
3055;DHT22;1537;52.018;8.542;2022-07-10T18:03:43;17.80;99.90
3055;DHT22;1537;52.018;8.542;2022-07-10T18:07:08;17.80;99.90
3055;DHT22;1537;52.018;8.542;2022-07-10T18:10:33;17.80;99.90
3055;DHT22;1537;52.018;8.542;2022-07-10T18:13:57;17.90;99.90
3055;DHT22;1537;52.018;8.542;2022-07-10T18:17:22;17.80;99.90
3055;DHT22;1537;52.018;8.542;2022-07-10T18:20:46;17.80;99.90
3055;DHT22;1537;52.018;8.542;2022-07-10T18:24:10;17.70;99.90
3055;DHT22;1537;52.018;8.542;2022-07-10T18:27:38;17.70;99.90
3055;DHT22;1537;52.018;8.542;2022-07-10T18:31:02;17.70;99.90
3055;DHT22;1537;52.018;8.542;2022-07-10T18:34:27;17.50;99.90
3055;DHT22;1537;52.018;8.542;2022-07-10T18:37:52;17.40;99.90
3055;DHT22;1537;52.018;8.542;2022-07-10T18:41:16;17.40;99.90
3055;DHT22;1537;52.018;8.542;2022-07-10T18:44:39;17.40;99.90
3055;DHT22;1537;52.018;8.542;2022-07-10T18:48:05;17.40;99.90
3055;DHT22;1537;52.018;8.542;2022-07-10T18:51:30;17.30;99.90
3055;DHT22;1537;52.018;8.542;2022-07-10T18:54:54;17.20;99.90
3055;DHT22;1537;52.018;8.542;2022-07-10T18:58:18;17.00;99.90
3055;DHT22;1537;52.018;8.542;2022-07-10T19:01:42;16.90;99.90
3055;DHT22;1537;52.018;8.542;2022-07-10T19:05:06;16.90;99.90
3055;DHT22;1537;52.018;8.542;2022-07-10T19:08:31;16.90;99.90
3055;DHT22;1537;52.018;8.542;2022-07-10T19:11:55;16.90;99.90
3055;DHT22;1537;52.018;8.542;2022-07-10T19:15:21;17.00;99.90
3055;DHT22;1537;52.018;8.542;2022-07-10T19:18:45;17.00;99.90
3055;DHT22;1537;52.018;8.542;2022-07-10T19:22:10;17.00;99.90
3055;DHT22;1537;52.018;8.542;2022-07-10T19:25:37;17.10;99.90
3055;DHT22;1537;52.018;8.542;2022-07-10T19:29:01;17.00;99.90
3055;DHT22;1537;52.018;8.542;2022-07-10T19:32:24;17.10;99.90
3055;DHT22;1537;52.018;8.542;2022-07-10T19:35:52;16.90;99.90
3055;DHT22;1537;52.018;8.542;2022-07-10T19:39:16;16.90;99.90
3055;DHT22;1537;52.018;8.542;2022-07-10T19:42:44;16.90;99.90
3055;DHT22;1537;52.018;8.542;2022-07-10T19:46:11;16.80;99.90
3055;DHT22;1537;52.018;8.542;2022-07-10T19:49:43;16.90;99.90
3055;DHT22;1537;52.018;8.542;2022-07-10T19:53:07;17.00;99.90
3055;DHT22;1537;52.018;8.542;2022-07-10T19:56:32;17.00;99.90
3055;DHT22;1537;52.018;8.542;2022-07-10T20:00:04;17.10;99.90
3055;DHT22;1537;52.018;8.542;2022-07-10T20:03:36;17.10;99.90
3055;DHT22;1537;52.018;8.542;2022-07-10T20:07:04;17.10;99.90
3055;DHT22;1537;52.018;8.542;2022-07-10T20:10:32;17.20;99.90
3055;DHT22;1537;52.018;8.542;2022-07-10T20:13:58;17.10;99.90
3055;DHT22;1537;52.018;8.542;2022-07-10T20:17:26;17.10;99.90
3055;DHT22;1537;52.018;8.542;2022-07-10T20:20:53;17.10;99.90
3055;DHT22;1537;52.018;8.542;2022-07-10T20:24:20;17.20;99.90
3055;DHT22;1537;52.018;8.542;2022-07-10T20:27:44;17.20;99.90
3055;DHT22;1537;52.018;8.542;2022-07-10T20:31:16;17.20;99.90
3055;DHT22;1537;52.018;8.542;2022-07-10T20:34:44;17.20;99.90
3055;DHT22;1537;52.018;8.542;2022-07-10T20:38:10;17.10;99.90
3055;DHT22;1537;52.018;8.542;2022-07-10T20:41:37;17.00;99.90
3055;DHT22;1537;52.018;8.542;2022-07-10T20:45:06;16.90;99.90
3055;DHT22;1537;52.018;8.542;2022-07-10T20:48:32;16.90;99.90
3055;DHT22;1537;52.018;8.542;2022-07-10T20:52:01;16.80;99.90
3055;DHT22;1537;52.018;8.542;2022-07-10T20:55:29;16.70;99.90
3055;DHT22;1537;52.018;8.542;2022-07-10T20:58:54;16.60;99.90
3055;DHT22;1537;52.018;8.542;2022-07-10T21:02:19;16.60;99.90
3055;DHT22;1537;52.018;8.542;2022-07-10T21:05:43;16.50;99.90
3055;DHT22;1537;52.018;8.542;2022-07-10T21:09:09;16.50;99.90
3055;DHT22;1537;52.018;8.542;2022-07-10T21:12:32;16.60;99.90
3055;DHT22;1537;52.018;8.542;2022-07-10T21:15:56;16.60;99.90
3055;DHT22;1537;52.018;8.542;2022-07-10T21:19:21;16.70;99.90
3055;DHT22;1537;52.018;8.542;2022-07-10T21:22:44;16.70;99.90
3055;DHT22;1537;52.018;8.542;2022-07-10T21:26:10;16.80;99.90
3055;DHT22;1537;52.018;8.542;2022-07-10T21:29:34;16.90;99.90
3055;DHT22;1537;52.018;8.542;2022-07-10T21:32:58;16.90;99.90
3055;DHT22;1537;52.018;8.542;2022-07-10T21:36:22;17.00;99.90
3055;DHT22;1537;52.018;8.542;2022-07-10T21:39:45;17.00;99.90
3055;DHT22;1537;52.018;8.542;2022-07-10T21:43:10;17.00;99.90
3055;DHT22;1537;52.018;8.542;2022-07-10T21:46:34;17.00;99.90
3055;DHT22;1537;52.018;8.542;2022-07-10T21:49:59;17.10;99.90
3055;DHT22;1537;52.018;8.542;2022-07-10T21:53:22;17.20;99.90
3055;DHT22;1537;52.018;8.542;2022-07-10T21:56:46;17.00;99.90
3055;DHT22;1537;52.018;8.542;2022-07-10T22:00:13;17.10;99.90
3055;DHT22;1537;52.018;8.542;2022-07-10T22:03:36;17.10;99.90
3055;DHT22;1537;52.018;8.542;2022-07-10T22:07:01;17.10;99.90
3055;DHT22;1537;52.018;8.542;2022-07-10T22:10:25;17.10;99.90
3055;DHT22;1537;52.018;8.542;2022-07-10T22:13:49;17.20;99.90
3055;DHT22;1537;52.018;8.542;2022-07-10T22:17:16;17.20;99.90
3055;DHT22;1537;52.018;8.542;2022-07-10T22:20:43;17.10;99.90
3055;DHT22;1537;52.018;8.542;2022-07-10T22:24:10;17.00;99.90
3055;DHT22;1537;52.018;8.542;2022-07-10T22:27:34;17.00;99.90
3055;DHT22;1537;52.018;8.542;2022-07-10T22:31:01;17.00;99.90
3055;DHT22;1537;52.018;8.542;2022-07-10T22:34:43;16.90;99.90